Time;durP1;ratioP1;P1;durP2;ratioP2;P2;SDS_P1;SDS_P2;PMS_P1;PMS_P2;Temp;Humidity;BMP_temperature;BMP_pressure;BME280_temperature;BME280_humidity;BME280_pressure;Samples;Min_cycle;Max_cycle;Signal;HPM_P1;HPM_P2
2022/08/21 00:00:11;;;;;;;15.30;1.60;;;;;;;26.25;58.79;99356.31;7316051;19;128878;-37
2022/08/21 00:02:37;;;;;;;17.13;1.80;;;;;;;26.26;58.51;99357.13;7315088;19;129157;-38
2022/08/21 00:05:03;;;;;;;30.87;2.67;;;;;;;26.26;58.23;99359.78;7314362;19;128823;-38
2022/08/21 00:07:29;;;;;;;15.45;1.65;;;;;;;26.25;59.30;99351.03;7316829;19;128813;-38
2022/08/21 00:09:55;;;;;;;4.90;0.83;;;;;;;26.27;58.89;99350.84;7315540;19;131377;-38
2022/08/21 00:12:20;;;;;;;16.33;1.60;;;;;;;26.16;59.28;99336.28;7315234;19;129695;-38
2022/08/21 00:14:46;;;;;;;35.17;3.07;;;;;;;26.24;58.86;99338.88;7315166;19;129400;-38
2022/08/21 00:17:12;;;;;;;15.67;1.73;;;;;;;26.26;58.91;99343.97;7316539;19;128726;-38
2022/08/21 00:19:37;;;;;;;16.20;1.40;;;;;;;26.27;58.62;99348.22;7315821;19;129136;-38
2022/08/21 00:22:03;;;;;;;23.03;2.03;;;;;;;26.26;57.80;99350.03;7315588;19;129139;-38
2022/08/21 00:24:28;;;;;;;32.77;3.00;;;;;;;26.27;59.06;99354.31;7314944;19;128892;-38
2022/08/21 00:26:54;;;;;;;18.90;1.83;;;;;;;26.00;55.10;99351.34;7316298;19;129024;-38
2022/08/21 00:29:20;;;;;;;16.33;1.77;;;;;;;25.92;54.71;99354.84;7315228;19;129651;-38
2022/08/21 00:31:45;;;;;;;31.83;3.00;;;;;;;26.01;56.56;99345.94;7314614;19;129518;-38
2022/08/21 00:34:13;;;;;;;25.60;2.23;;;;;;;26.11;58.57;99348.34;7314881;19;128913;-37
2022/08/21 00:36:38;;;;;;;14.82;1.52;;;;;;;26.14;58.61;99348.81;7313868;19;128785;-38
2022/08/21 00:39:08;;;;;;;16.67;1.90;;;;;;;26.19;59.40;99346.47;7313702;19;128982;-38
2022/08/21 00:41:36;;;;;;;42.20;4.20;;;;;;;26.21;59.02;99352.41;7316079;19;130703;-38
2022/08/21 00:44:03;;;;;;;32.97;3.05;;;;;;;26.23;58.33;99352.22;7314704;19;129280;-38
2022/08/21 00:46:29;;;;;;;16.95;1.60;;;;;;;26.23;58.87;99353.00;7315812;19;128827;-37
2022/08/21 00:48:55;;;;;;;8.37;1.07;;;;;;;26.16;58.65;99338.09;7314619;19;129587;-38
2022/08/21 00:51:25;;;;;;;40.47;3.33;;;;;;;26.24;59.72;99349.41;7311433;19;129211;-37
2022/08/21 00:53:57;;;;;;;26.27;2.50;;;;;;;26.24;60.11;99359.94;7313915;19;129302;-38
2022/08/21 00:56:23;;;;;;;16.30;1.60;;;;;;;26.23;58.11;99355.66;7314352;19;129104;-37
2022/08/21 00:58:51;;;;;;;16.73;1.77;;;;;;;26.25;57.59;99361.56;7314916;19;129117;-38
2022/08/21 01:01:17;;;;;;;18.48;1.83;;;;;;;26.25;59.12;99355.47;7313888;19;129378;-37
2022/08/21 01:03:42;;;;;;;41.17;3.57;;;;;;;26.16;58.35;99349.47;7312835;19;129294;-38
2022/08/21 01:06:08;;;;;;;11.63;1.53;;;;;;;26.25;59.36;99364.22;7315408;19;129184;-38
2022/08/21 01:08:34;;;;;;;16.13;1.65;;;;;;;26.24;59.08;99370.50;7314428;19;130246;-38
2022/08/21 01:11:00;;;;;;;25.63;2.47;;;;;;;26.24;59.28;99365.22;7313270;19;129431;-38
2022/08/21 01:13:28;;;;;;;42.43;3.70;;;;;;;26.07;56.70;99363.66;7313158;19;128904;-38
2022/08/21 01:15:57;;;;;;;21.10;2.05;;;;;;;25.84;55.18;99356.69;7313005;19;128952;-38
2022/08/21 01:18:23;;;;;;;16.02;1.50;;;;;;;25.98;55.92;99364.66;7313970;19;129867;-38
2022/08/21 01:21:08;;;;;;;14.68;1.55;;;;;;;26.09;59.80;99366.97;7313188;19;130377;-38
2022/08/21 01:23:35;;;;;;;22.63;2.28;;;;;;;26.13;58.15;99359.53;7312602;19;128989;-38
2022/08/21 01:26:02;;;;;;;43.30;3.65;;;;;;;26.18;58.39;99355.34;7314091;19;129393;-38
2022/08/21 01:28:30;;;;;;;15.55;1.60;;;;;;;26.16;58.36;99354.72;7314690;19;130034;-38
2022/08/21 01:30:56;;;;;;;15.57;1.60;;;;;;;26.22;58.53;99361.94;7314399;19;130235;-38
2022/08/21 01:33:25;;;;;;;18.45;1.73;;;;;;;26.24;58.95;99359.94;7313766;19;129009;-38
2022/08/21 01:35:50;;;;;;;39.42;3.25;;;;;;;26.23;58.39;99362.75;7312756;19;128870;-38
2022/08/21 01:38:17;;;;;;;19.27;2.33;;;;;;;26.24;58.42;99359.13;7314943;19;129991;-38
2022/08/21 01:40:42;;;;;;;16.08;1.67;;;;;;;26.23;58.87;99355.66;7313036;19;129531;-38
2022/08/21 01:43:07;;;;;;;14.63;1.70;;;;;;;26.24;58.18;99359.94;7312665;19;129234;-37
2022/08/21 01:45:33;;;;;;;34.57;3.13;;;;;;;26.25;58.11;99361.56;7310702;19;128790;-38
2022/08/21 01:47:58;;;;;;;15.93;1.40;;;;;;;26.24;58.46;99353.84;7314531;19;129970;-37
2022/08/21 01:50:23;;;;;;;15.63;1.70;;;;;;;26.24;59.21;99359.13;7312920;19;130332;-37
2022/08/21 01:52:50;;;;;;;15.30;1.63;;;;;;;26.22;58.93;99356.66;7312102;19;128895;-38
2022/08/21 01:55:16;;;;;;;36.85;3.08;;;;;;;26.22;59.08;99356.66;7310901;19;129312;-38
2022/08/21 01:57:42;;;;;;;16.10;1.73;;;;;;;26.23;59.14;99357.50;7313520;19;129381;-38
2022/08/21 02:00:11;;;;;;;8.20;1.17;;;;;;;25.87;54.82;99351.91;7312194;19;129914;-38
2022/08/21 02:02:36;;;;;;;20.40;2.00;;;;;;;25.89;54.29;99365.72;7311643;19;129300;-38
2022/08/21 02:05:03;;;;;;;37.87;3.20;;;;;;;26.01;57.21;99358.25;7310449;19;129456;-38
2022/08/21 02:07:40;;;;;;;20.70;2.10;;;;;;;26.10;59.37;99355.41;7313570;19;130200;-38
2022/08/21 02:10:08;;;;;;;15.90;1.63;;;;;;;26.15;59.24;99360.16;7312871;19;130520;-38
2022/08/21 02:12:33;;;;;;;16.35;1.75;;;;;;;26.16;57.66;99352.09;7311545;19;128853;-37
2022/08/21 02:14:58;;;;;;;34.40;2.87;;;;;;;26.14;58.67;99340.91;7310436;19;129496;-37
2022/08/21 02:17:24;;;;;;;18.23;1.90;;;;;;;26.23;57.48;99354.84;7313061;19;129295;-38
2022/08/21 02:19:49;;;;;;;16.10;1.80;;;;;;;26.23;58.31;99358.28;7311838;19;129189;-38
2022/08/21 02:22:14;;;;;;;4.73;0.87;;;;;;;26.25;58.14;99355.47;7311873;19;129162;-38
2022/08/21 02:24:40;;;;;;;36.63;3.10;;;;;;;26.23;58.54;99350.38;7310328;19;130525;-37
2022/08/21 02:27:05;;;;;;;15.57;1.73;;;;;;;26.22;58.61;99351.38;7312787;19;129824;-37
2022/08/21 02:29:30;;;;;;;4.77;0.70;;;;;;;26.23;58.06;99352.22;7311449;19;129083;-38
2022/08/21 02:31:56;;;;;;;22.07;2.37;;;;;;;26.24;59.07;99344.13;7311197;19;129261;-38
2022/08/21 02:34:21;;;;;;;37.33;3.27;;;;;;;26.23;58.45;99350.38;7310891;19;129446;-38
2022/08/21 02:36:47;;;;;;;18.83;2.07;;;;;;;26.23;59.57;99352.22;7310111;19;129059;-38
2022/08/21 02:39:12;;;;;;;21.03;2.13;;;;;;;26.24;59.46;99354.69;7311446;19;130497;-38
2022/08/21 02:41:37;;;;;;;41.10;3.70;;;;;;;26.23;58.64;99352.22;7310607;19;129212;-38
2022/08/21 02:44:03;;;;;;;36.23;2.97;;;;;;;26.21;59.31;99351.56;7310721;19;128776;-38
2022/08/21 02:46:28;;;;;;;9.87;1.03;;;;;;;26.18;57.66;99354.56;7311861;19;129494;-38
2022/08/21 02:48:53;;;;;;;16.63;1.77;;;;;;;25.86;54.78;99349.44;7311357;19;130267;-37
2022/08/21 02:51:19;;;;;;;35.83;2.83;;;;;;;25.92;55.18;99352.19;7310681;19;129132;-38
2022/08/21 02:53:47;;;;;;;10.67;1.23;;;;;;;26.05;58.18;99341.94;7310749;19;128994;-38
2022/08/21 02:56:17;;;;;;;14.73;1.50;;;;;;;26.10;59.17;99342.25;7310233;19;130201;-38
2022/08/21 02:58:47;;;;;;;14.93;1.52;;;;;;;26.14;58.73;99337.44;7311313;19;130538;-38
2022/08/21 03:01:13;;;;;;;18.58;1.88;;;;;;;26.19;58.28;99335.09;7314105;19;128787;-37
2022/08/21 03:03:42;;;;;;;40.10;3.50;;;;;;;26.19;58.97;99335.09;7317163;19;129260;-38
2022/08/21 03:06:09;;;;;;;14.73;1.40;;;;;;;26.22;58.94;99334.75;7319105;19;130362;-38
2022/08/21 03:08:36;;;;;;;8.32;1.05;;;;;;;26.21;58.09;99328.69;7316974;19;129473;-38
2022/08/21 03:11:01;;;;;;;15.60;1.70;;;;;;;26.21;59.14;99333.13;7317196;19;129167;-38
2022/08/21 03:13:27;;;;;;;40.23;3.37;;;;;;;26.21;59.09;99331.31;7315189;19;129094;-38
2022/08/21 03:15:53;;;;;;;14.63;1.60;;;;;;;26.12;59.15;99329.72;7316923;19;129755;-38
2022/08/21 03:18:18;;;;;;;19.23;2.03;;;;;;;26.21;58.02;99330.47;7317513;19;130318;-38
2022/08/21 03:20:44;;;;;;;17.93;1.70;;;;;;;26.21;58.41;99333.94;7317644;19;129530;-38
2022/08/21 03:23:11;;;;;;;31.98;2.80;;;;;;;26.21;58.88;99344.50;7316593;19;129371;-38
2022/08/21 03:25:37;;;;;;;;;;;;;;;26.28;60.58;99352.50;7316099;19;130416;-38
2022/08/21 03:28:05;;;;;;;6.45;0.93;;;;;;;26.23;59.89;99357.50;7316765;19;129604;-38
2022/08/21 03:30:31;;;;;;;25.70;2.38;;;;;;;26.22;59.45;99367.19;7316503;19;129040;-37
2022/08/21 03:32:58;;;;;;;25.63;2.40;;;;;;;26.22;59.17;99359.28;7317072;19;128984;-38
2022/08/21 03:35:25;;;;;;;13.40;1.40;;;;;;;25.89;55.19;99360.44;7315673;19;130899;-37
2022/08/21 03:37:50;;;;;;;23.88;2.50;;;;;;;25.88;55.08;99358.00;7316838;19;130991;-38
2022/08/21 03:40:17;;;;;;;15.03;1.73;;;;;;;26.04;57.94;99363.19;7316879;19;129280;-38
2022/08/21 03:42:43;;;;;;;35.53;3.15;;;;;;;26.08;58.36;99357.41;7317107;19;129127;-37
2022/08/21 03:45:09;;;;;;;14.93;1.53;;;;;;;26.13;58.01;99360.31;7315887;19;130185;-37
2022/08/21 03:47:35;;;;;;;12.30;1.38;;;;;;;26.17;57.48;99361.63;7316821;19;129413;-37
2022/08/21 03:50:03;;;;;;;27.33;2.37;;;;;;;26.19;58.30;99354.38;7317027;19;129145;-37
2022/08/21 03:52:28;;;;;;;29.70;2.70;;;;;;;26.21;58.52;99362.94;7314507;19;129648;-38
2022/08/21 03:54:54;;;;;;;13.27;1.43;;;;;;;26.21;58.50;99354.19;7315426;19;130086;-37
2022/08/21 03:57:19;;;;;;;17.07;1.60;;;;;;;26.22;58.38;99355.81;7313547;19;130044;-38
2022/08/21 03:59:45;;;;;;;26.77;2.43;;;;;;;26.22;58.66;99356.66;7315781;19;128912;-38
2022/08/21 04:02:13;;;;;;;16.03;1.83;;;;;;;26.19;59.57;99357.00;7316174;19;128999;-38
2022/08/21 04:04:38;;;;;;;15.73;1.60;;;;;;;26.18;58.86;99358.00;7315160;19;129761;-38
2022/08/21 04:07:04;;;;;;;13.70;1.40;;;;;;;26.18;58.99;99371.16;7316472;19;129101;-38
2022/08/21 04:09:30;;;;;;;22.97;2.00;;;;;;;26.19;59.36;99364.91;7315316;19;129266;-38
2022/08/21 04:11:56;;;;;;;22.37;2.07;;;;;;;26.22;59.52;99376.91;7314840;19;129121;-37
2022/08/21 04:14:22;;;;;;;5.82;0.80;;;;;;;26.21;59.38;99375.28;7313710;19;129074;-38
2022/08/21 04:16:47;;;;;;;16.03;1.63;;;;;;;26.22;58.70;99375.09;7313531;19;129672;-37
2022/08/21 04:19:13;;;;;;;41.43;3.50;;;;;;;26.21;58.91;99376.13;7315720;19;129462;-37
2022/08/21 04:21:40;;;;;;;35.13;3.37;;;;;;;25.86;55.16;99379.25;7315763;19;128901;-38
2022/08/21 04:24:07;;;;;;;15.55;1.65;;;;;;;25.79;54.18;99359.84;7315289;19;129153;-38
2022/08/21 04:26:34;;;;;;;16.40;1.55;;;;;;;26.01;57.41;99374.91;7315509;19;131433;-38
2022/08/21 04:28:59;;;;;;;27.42;2.45;;;;;;;26.08;58.14;99381.09;7315296;19;128833;-37
2022/08/21 04:31:25;;;;;;;19.03;2.00;;;;;;;26.10;58.48;99371.22;7315805;19;128797;-38
2022/08/21 04:33:50;;;;;;;14.13;1.50;;;;;;;26.08;58.39;99365.28;7314728;19;129399;-38
2022/08/21 04:36:16;;;;;;;16.17;1.50;;;;;;;26.18;58.59;99370.38;7314135;19;130896;-38
2022/08/21 04:38:42;;;;;;;30.85;2.70;;;;;;;26.20;58.46;99376.25;7315265;19;129039;-38
2022/08/21 04:41:07;;;;;;;16.17;1.67;;;;;;;26.19;58.33;99375.47;7315297;19;128807;-38
2022/08/21 04:43:33;;;;;;;29.10;2.70;;;;;;;26.20;59.04;99376.25;7314271;19;129988;-38
2022/08/21 04:46:00;;;;;;;14.00;1.47;;;;;;;26.12;59.45;99365.78;7314669;19;129678;-38
2022/08/21 04:48:25;;;;;;;;;;;;;;;26.26;60.45;99383.50;7315984;19;128847;-38
2022/08/21 04:50:54;;;;;;;17.67;1.65;;;;;;;26.20;60.35;99379.72;7315791;19;130305;-38
2022/08/21 04:53:31;;;;;;;9.25;1.17;;;;;;;26.18;59.05;99379.06;7315617;19;130130;-38
2022/08/21 04:56:00;;;;;;;15.85;1.70;;;;;;;26.19;58.89;99378.09;7314180;19;130677;-38
2022/08/21 04:58:27;;;;;;;28.13;2.45;;;;;;;26.18;58.35;99378.28;7314692;19;128950;-38
2022/08/21 05:00:53;;;;;;;;;;;;;;;26.25;60.98;99387.94;7315652;19;129359;-38
2022/08/21 05:03:19;;;;;;;15.18;1.50;;;;;;;26.22;58.19;99388.28;7315553;19;128963;-38
2022/08/21 05:05:45;;;;;;;14.70;1.47;;;;;;;26.20;59.28;99390.28;7312150;19;129429;-38
2022/08/21 05:08:14;;;;;;;10.33;1.30;;;;;;;25.99;56.65;99387.41;7315304;19;128979;-37
2022/08/21 05:10:40;;;;;;;22.08;2.17;;;;;;;25.85;54.75;99396.03;7313796;19;128953;-38
2022/08/21 05:13:06;;;;;;;16.00;1.47;;;;;;;25.96;55.55;99402.72;7314178;19;129202;-38
2022/08/21 05:15:32;;;;;;;;;;;;;;;26.07;60.12;99399.72;7311761;19;129330;-38
2022/08/21 05:17:57;;;;;;;26.83;2.53;;;;;;;26.10;58.22;99394.94;7314187;19;128778;-38
2022/08/21 05:20:23;;;;;;;32.70;2.73;;;;;;;26.10;58.51;99384.41;7314793;19;128950;-38
2022/08/21 05:22:49;;;;;;;14.97;1.50;;;;;;;26.12;58.83;99387.69;7314027;19;129559;-38
2022/08/21 05:25:14;;;;;;;18.70;1.73;;;;;;;26.13;58.90;99384.03;7311100;19;130355;-38
2022/08/21 05:27:39;;;;;;;26.70;2.43;;;;;;;26.16;58.24;99396.91;7313579;19;128952;-37
2022/08/21 05:30:09;;;;;;;24.10;2.10;;;;;;;26.16;59.03;99394.25;7314659;19;129257;-38
2022/08/21 05:32:35;;;;;;;14.02;1.35;;;;;;;26.18;58.63;99404.63;7313555;19;129338;-37
2022/08/21 05:35:01;;;;;;;16.47;1.60;;;;;;;26.19;58.59;99398.34;7311329;19;129514;-37
2022/08/21 05:37:26;;;;;;;33.67;2.93;;;;;;;26.18;58.23;99394.88;7311512;19;128886;-37
2022/08/21 05:39:52;;;;;;;28.87;2.53;;;;;;;26.18;59.22;99402.00;7313669;19;128923;-37
2022/08/21 05:42:17;;;;;;;14.07;1.33;;;;;;;26.17;58.32;99398.53;7313198;19;129486;-38
2022/08/21 05:44:43;;;;;;;7.60;1.00;;;;;;;26.17;58.55;99400.34;7311611;19;129384;-38
2022/08/21 05:47:10;;;;;;;41.87;3.37;;;;;;;26.18;59.41;99402.78;7313764;19;128749;-38
2022/08/21 05:49:36;;;;;;;25.10;2.30;;;;;;;26.16;58.85;99404.81;7314212;19;129424;-38
2022/08/21 05:52:02;;;;;;;14.10;1.40;;;;;;;26.08;58.91;99383.75;7314048;19;130639;-37
2022/08/21 05:54:28;;;;;;;23.25;2.30;;;;;;;26.18;58.89;99400.16;7311733;19;130503;-38
2022/08/21 05:56:53;;;;;;;35.13;2.93;;;;;;;26.00;56.18;99399.56;7311425;19;128910;-38
2022/08/21 05:59:19;;;;;;;17.37;1.67;;;;;;;25.83;54.61;99402.47;7314204;19;128739;-38
2022/08/21 06:01:45;;;;;;;11.57;1.37;;;;;;;25.94;55.76;99404.72;7312610;19;129444;-38
2022/08/21 06:04:11;;;;;;;15.23;1.60;;;;;;;26.01;58.12;99398.63;7312517;19;130604;-38
2022/08/21 06:06:36;;;;;;;41.13;3.27;;;;;;;26.07;58.24;99400.56;7313694;19;129035;-38
2022/08/21 06:09:03;;;;;;;22.57;2.47;;;;;;;26.11;59.22;99404.50;7313721;19;128808;-38
2022/08/21 06:11:28;;;;;;;24.70;2.72;;;;;;;26.06;58.71;99393.66;7312330;19;129335;-38
2022/08/21 06:13:53;;;;;;;13.73;1.40;;;;;;;26.16;59.11;99403.97;7312228;19;129842;-38
2022/08/21 06:16:19;;;;;;;40.70;3.37;;;;;;;26.11;58.57;99401.88;7311775;19;129659;-38
2022/08/21 06:18:45;;;;;;;14.83;1.47;;;;;;;26.18;58.61;99418.59;7313935;19;129201;-38
2022/08/21 06:21:11;;;;;;;14.43;1.52;;;;;;;26.19;59.38;99417.63;7312733;19;130171;-38
2022/08/21 06:23:38;;;;;;;18.02;1.75;;;;;;;26.16;59.43;99412.72;7311339;19;129322;-38
2022/08/21 06:26:05;;;;;;;25.77;2.30;;;;;;;26.18;58.79;99418.59;7312222;19;128874;-38
2022/08/21 06:28:31;;;;;;;3.13;0.68;;;;;;;26.16;59.11;99410.06;7313337;19;128797;-38
2022/08/21 06:30:56;;;;;;;15.00;1.60;;;;;;;26.16;59.73;99415.34;7312517;19;129189;-38
2022/08/21 06:33:22;;;;;;;22.77;2.03;;;;;;;26.18;59.16;99405.44;7311281;19;129143;-38
2022/08/21 06:35:48;;;;;;;26.93;2.40;;;;;;;26.18;58.38;99408.06;7307418;19;129243;-38
2022/08/21 06:38:13;;;;;;;17.47;1.80;;;;;;;26.18;59.08;99396.72;7312160;19;128775;-38
2022/08/21 06:40:39;;;;;;;14.60;1.53;;;;;;;26.16;58.80;99394.25;7311867;19;130728;-37
2022/08/21 06:43:07;;;;;;;23.77;2.20;;;;;;;26.17;58.75;99389.78;7310782;19;129585;-38
2022/08/21 06:45:32;;;;;;;24.52;2.10;;;;;;;25.89;54.99;99393.88;7309799;19;129328;-38
2022/08/21 06:47:58;;;;;;;16.33;1.50;;;;;;;25.82;54.57;99396.38;7312512;19;129185;-38
2022/08/21 06:50:24;;;;;;;14.70;1.33;;;;;;;25.94;56.69;99400.28;7311344;19;129432;-37
2022/08/21 06:52:49;;;;;;;34.80;2.93;;;;;;;26.02;57.97;99392.34;7310329;19;129547;-38
2022/08/21 06:55:14;;;;;;;27.50;2.60;;;;;;;26.08;58.16;99396.13;7309661;19;129730;-38
2022/08/21 06:57:40;;;;;;;16.13;1.57;;;;;;;26.11;58.81;99407.13;7309474;19;129320;-38
2022/08/21 07:00:08;;;;;;;13.40;1.37;;;;;;;26.15;57.71;99413.69;7311200;19;129111;-37
2022/08/21 07:02:33;;;;;;;24.75;2.13;;;;;;;26.15;58.44;99416.31;7310650;19;130831;-38
2022/08/21 07:04:59;;;;;;;18.83;1.73;;;;;;;26.16;58.44;99415.34;7309872;19;129542;-38
2022/08/21 07:07:24;;;;;;;12.33;1.50;;;;;;;26.10;58.26;99399.41;7311450;19;128925;-38
2022/08/21 07:09:49;;;;;;;19.13;1.70;;;;;;;26.17;58.38;99416.16;7310806;19;130042;-37
2022/08/21 07:12:15;;;;;;;28.80;2.73;;;;;;;26.17;58.66;99406.44;7310011;19;130950;-38
2022/08/21 07:14:40;;;;;;;4.13;0.60;;;;;;;26.18;58.24;99402.78;7310874;19;129508;-38
2022/08/21 07:17:05;;;;;;;15.07;1.57;;;;;;;26.15;58.97;99400.50;7309542;19;129054;-38
2022/08/21 07:19:31;;;;;;;15.17;1.50;;;;;;;26.16;58.41;99394.25;7310314;19;129109;-38
2022/08/21 07:22:00;;;;;;;32.97;2.90;;;;;;;26.15;58.88;99395.25;7309522;19;129442;-38
2022/08/21 07:24:25;;;;;;;18.75;1.73;;;;;;;26.15;57.66;99403.16;7310875;19;130370;-38
2022/08/21 07:26:51;;;;;;;13.63;1.50;;;;;;;26.16;58.96;99404.81;7310624;19;129589;-38
2022/08/21 07:29:17;;;;;;;15.23;1.60;;;;;;;26.17;58.88;99398.53;7310350;19;129291;-38
2022/08/21 07:31:42;;;;;;;37.83;3.47;;;;;;;26.17;58.31;99410.88;7310284;19;129158;-37
2022/08/21 07:34:08;;;;;;;13.30;1.30;;;;;;;25.74;54.59;99388.50;7310744;19;129156;-38
2022/08/21 07:36:33;;;;;;;18.73;1.80;;;;;;;25.89;55.17;99402.59;7309881;19;129134;-37
2022/08/21 07:38:59;;;;;;;19.33;1.80;;;;;;;25.91;57.31;99394.53;7310568;19;130498;-37
2022/08/21 07:41:28;;;;;;;37.47;3.30;;;;;;;25.99;58.29;99397.94;7311000;19;129680;-37
2022/08/21 07:43:53;;;;;;;15.80;1.70;;;;;;;26.07;58.56;99413.72;7310270;19;129207;-38
2022/08/21 07:46:19;;;;;;;17.00;1.57;;;;;;;26.03;58.76;99404.53;7309464;19;129224;-38
2022/08/21 07:48:44;;;;;;;25.33;2.37;;;;;;;26.15;58.25;99428.66;7316294;19;130378;-37
2022/08/21 07:51:13;;;;;;;24.20;2.37;;;;;;;26.13;59.28;99428.03;7316291;19;129113;-38
2022/08/21 07:53:39;;;;;;;20.10;1.90;;;;;;;26.14;59.34;99422.59;7316254;19;128809;-38
2022/08/21 07:56:06;;;;;;;25.30;2.53;;;;;;;26.13;58.71;99420.13;7315184;19;129248;-37
2022/08/21 07:58:32;;;;;;;26.02;2.30;;;;;;;26.15;57.76;99434.75;7315692;19;132284;-38
2022/08/21 08:00:58;;;;;;;34.97;2.72;;;;;;;26.15;58.57;99424.22;7316161;19;130302;-38
2022/08/21 08:03:23;;;;;;;16.93;1.60;;;;;;;26.15;58.65;99424.22;7316117;19;129142;-38
2022/08/21 08:05:49;;;;;;;19.80;2.00;;;;;;;26.15;58.71;99433.94;7313686;19;129102;-38
2022/08/21 08:08:14;;;;;;;28.63;2.40;;;;;;;26.16;58.95;99431.16;7315597;19;129176;-38
2022/08/21 08:10:40;;;;;;;21.73;1.87;;;;;;;26.15;59.01;99424.22;7315873;19;130912;-38
2022/08/21 08:13:05;;;;;;;14.07;1.43;;;;;;;26.16;58.64;99435.59;7316000;19;128994;-38
2022/08/21 08:15:31;;;;;;;5.03;0.80;;;;;;;26.08;58.77;99423.28;7313425;19;128956;-38
2022/08/21 08:17:57;;;;;;;36.63;3.03;;;;;;;26.15;58.54;99437.41;7313645;19;130219;-38
2022/08/21 08:20:26;;;;;;;22.90;2.27;;;;;;;25.80;54.87;99429.94;7315704;19;129311;-37
2022/08/21 08:22:52;;;;;;;16.05;1.58;;;;;;;25.77;54.31;99429.50;7314613;19;128913;-38
2022/08/21 08:25:18;;;;;;;13.77;1.25;;;;;;;25.98;56.96;99433.16;7313818;19;129361;-37
2022/08/21 08:27:44;;;;;;;;;;;;;;;26.08;60.18;99439.06;7317063;19;130085;-38
2022/08/21 08:30:11;;;;;;;22.53;2.03;;;;;;;26.09;58.69;99427.56;7316376;19;130206;-38
2022/08/21 08:32:37;;;;;;;15.35;1.38;;;;;;;26.11;58.20;99437.94;7316115;19;129685;-37
2022/08/21 08:35:04;;;;;;;16.93;1.60;;;;;;;26.12;58.52;99437.75;7313911;19;129624;-37
2022/08/21 08:37:29;;;;;;;;;;;;;;;26.20;60.59;99442.97;7314181;19;130060;-38
2022/08/21 08:39:54;;;;;;;18.30;1.70;;;;;;;26.13;58.52;99436.75;7316261;19;130977;-38
2022/08/21 08:42:35;;;;;;;15.77;1.50;;;;;;;26.15;60.09;99444.47;7315459;19;129271;-38
2022/08/21 08:45:13;;;;;;;5.82;0.80;;;;;;;26.13;60.34;99442.03;7313691;19;129717;-38
2022/08/21 08:47:55;;;;;;;15.18;1.48;;;;;;;26.13;58.88;99447.28;7314266;19;129429;-38
2022/08/21 08:50:25;;;;;;;16.42;1.52;;;;;;;26.13;59.55;99442.03;7315430;19;129319;-38
2022/08/21 08:53:00;;;;;;;30.40;2.67;;;;;;;26.14;60.26;99442.84;7314233;19;128989;-38
2022/08/21 08:55:52;;;;;;;32.42;2.75;;;;;;;26.09;60.92;99438.09;7313349;19;129238;-38
2022/08/21 08:58:24;;;;;;;37.55;3.10;;;;;;;26.13;60.78;99449.94;7312195;19;129334;-38
2022/08/21 09:00:51;;;;;;;18.75;1.75;;;;;;;26.13;59.57;99449.94;7315820;19;130577;-38
2022/08/21 09:03:17;;;;;;;15.60;1.50;;;;;;;26.13;59.83;99444.66;7314342;19;128934;-37
2022/08/21 09:06:01;;;;;;;15.37;1.40;;;;;;;26.02;56.60;99446.84;7312114;19;128971;-38
2022/08/21 09:08:50;;;;;;;17.77;1.63;;;;;;;25.81;54.58;99442.16;7314575;19;130989;-37
2022/08/21 09:11:52;;;;;;;19.50;1.77;;;;;;;25.92;58.94;99439.13;7314356;19;131271;-38
2022/08/21 09:14:45;;;;;;;15.35;1.42;;;;;;;26.03;59.84;99443.25;7313331;19;129206;-37
2022/08/21 09:17:30;;;;;;;24.02;2.30;;;;;;;26.06;59.72;99438.47;7312914;19;129322;-38
2022/08/21 09:20:14;;;;;;;16.60;1.48;;;;;;;26.08;60.27;99439.06;7311456;19;130617;-38
2022/08/21 09:22:48;;;;;;;15.43;1.48;;;;;;;26.10;60.19;99433.66;7313403;19;130204;-37
2022/08/21 09:25:22;;;;;;;13.77;1.48;;;;;;;26.12;59.73;99432.47;7311831;19;129541;-38
2022/08/21 09:27:48;;;;;;;32.35;2.78;;;;;;;26.12;58.83;99435.13;7314153;19;129224;-38
2022/08/21 09:30:14;;;;;;;19.90;1.80;;;;;;;26.13;59.01;99428.84;7314937;19;130061;-38
2022/08/21 09:32:41;;;;;;;13.88;1.35;;;;;;;26.12;59.92;99423.75;7314141;19;131123;-38
2022/08/21 09:35:17;;;;;;;16.13;1.50;;;;;;;26.03;59.80;99415.06;7312926;19;129476;-37
2022/08/21 09:37:47;;;;;;;9.32;1.00;;;;;;;26.12;59.84;99426.38;7311497;19;128838;-38
2022/08/21 09:40:33;;;;;;;36.55;3.10;;;;;;;26.05;60.40;99418.34;7313305;19;131048;-37
2022/08/21 09:43:05;;;;;;;38.72;3.25;;;;;;;26.12;59.78;99419.31;7313130;19;129625;-38
2022/08/21 09:45:32;;;;;;;20.17;1.92;;;;;;;26.13;58.94;99426.22;7312251;19;128904;-38
2022/08/21 09:48:09;;;;;;;10.82;1.33;;;;;;;26.12;61.02;99429.84;7313685;19;128972;-38
2022/08/21 09:50:34;;;;;;;10.93;1.15;;;;;;;26.13;58.44;99426.22;7313429;19;129008;-38
2022/08/21 09:53:00;;;;;;;24.83;2.27;;;;;;;26.13;58.67;99431.47;7313200;19;129566;-38
2022/08/21 09:58:19;;;;;;;42.67;3.50;;;;;;;25.83;55.20;99429.63;7309925;19;129720;-38
2022/08/21 10:00:55;;;;;;;16.50;1.63;;;;;;;25.95;57.70;99422.97;7313919;19;130197;-38
2022/08/21 10:03:24;;;;;;;20.88;1.95;;;;;;;26.01;58.19;99424.97;7312739;19;129903;-38
2022/08/21 10:06:10;;;;;;;20.00;1.83;;;;;;;26.09;60.17;99422.28;7310627;19;129186;-38
2022/08/21 10:08:39;;;;;;;25.35;2.40;;;;;;;26.10;58.82;99417.84;7312905;19;128986;-38
2022/08/21 10:11:11;;;;;;;24.40;2.05;;;;;;;26.11;60.20;99417.69;7310052;19;130223;-38
2022/08/21 10:13:54;;;;;;;37.40;3.13;;;;;;;26.12;59.97;99424.56;7312141;19;129578;-38
2022/08/21 10:16:30;;;;;;;28.98;2.45;;;;;;;26.13;59.11;99423.56;7312904;19;128829;-38
2022/08/21 10:19:23;;;;;;;18.40;1.75;;;;;;;26.13;60.47;99420.94;7313705;19;129054;-38
2022/08/21 10:22:17;;;;;;;20.83;1.95;;;;;;;26.13;60.41;99431.47;7312492;19;130112;-38
2022/08/21 10:25:26;;;;;;;29.25;2.50;;;;;;;26.14;60.92;99427.03;7311193;19;129248;-38
2022/08/21 10:28:15;;;;;;;35.17;2.97;;;;;;;26.14;60.44;99430.50;7312781;19;129281;-37
2022/08/21 10:30:46;;;;;;;21.88;1.90;;;;;;;26.12;58.92;99429.00;7311509;19;128936;-38
2022/08/21 10:33:58;;;;;;;35.45;2.90;;;;;;;26.11;60.56;99422.94;7311555;19;129051;-38
2022/08/21 10:36:35;;;;;;;17.35;1.50;;;;;;;26.10;60.54;99421.28;7309109;19;130300;-37
2022/08/21 10:39:13;;;;;;;27.25;2.35;;;;;;;26.11;59.81;99425.59;7311600;19;129095;-38
2022/08/21 10:41:47;;;;;;;;;;;;;;;25.89;55.94;99423.66;7312523;19;129294;-38
2022/08/21 10:44:30;;;;;;;31.63;2.75;;;;;;;25.77;54.59;99419.75;7310897;19;130164;-38
2022/08/21 10:47:08;;;;;;;19.00;1.75;;;;;;;25.91;57.90;99416.44;7312199;19;129457;-38
2022/08/21 10:49:46;;;;;;;16.38;1.52;;;;;;;25.98;58.02;99411.28;7312655;19;128918;-37
2022/08/21 10:52:26;;;;;;;15.63;1.52;;;;;;;26.02;59.83;99408.16;7311373;19;129492;-38
2022/08/21 10:55:00;;;;;;;15.77;1.42;;;;;;;26.06;59.42;99414.75;7310286;19;130799;-38
2022/08/21 10:57:43;;;;;;;14.90;1.40;;;;;;;26.08;60.08;99418.00;7309824;19;130940;-38
2022/08/21 11:00:14;;;;;;;14.93;1.40;;;;;;;26.10;59.65;99421.28;7311364;19;129198;-38
2022/08/21 11:02:49;;;;;;;27.27;2.40;;;;;;;26.02;59.97;99408.16;7310937;19;129609;-38
2022/08/21 11:05:25;;;;;;;33.88;2.85;;;;;;;26.10;58.48;99423.91;7309044;19;129343;-38
2022/08/21 11:07:55;;;;;;;17.63;1.70;;;;;;;26.02;59.41;99413.44;7312636;19;130335;-38
2022/08/21 11:10:50;;;;;;;8.00;0.88;;;;;;;26.10;60.58;99420.50;7310676;19;128895;-37
2022/08/21 11:13:32;;;;;;;17.23;1.58;;;;;;;26.10;60.50;99426.56;7310937;19;128726;-37
2022/08/21 11:16:10;;;;;;;13.77;1.35;;;;;;;26.09;60.50;99424.94;7310937;19;129723;-38
2022/08/21 11:19:00;;;;;;;28.45;2.88;;;;;;;26.10;60.76;99426.56;7308910;19;129833;-38
2022/08/21 11:21:45;;;;;;;22.88;2.03;;;;;;;26.10;60.73;99425.75;7310401;19;128805;-38
2022/08/21 11:24:10;;;;;;;16.00;1.50;;;;;;;26.07;59.49;99416.38;7316841;19;129356;-38
2022/08/21 11:26:45;;;;;;;12.53;1.40;;;;;;;26.08;60.42;99425.91;7317091;19;130233;-38
2022/08/21 11:29:24;;;;;;;31.00;2.72;;;;;;;25.82;54.67;99414.81;7317146;19;129140;-38